createdAt,value
2019-01-26T00:00:45.393Z,122.60
2019-01-26T00:03:18.242Z,112.67
2019-01-26T00:05:48.976Z,106.63
2019-01-26T00:08:20.256Z,105.70
2019-01-26T00:10:51.850Z,108.07
2019-01-26T00:13:22.491Z,119.17
2019-01-26T00:15:54.372Z,100.33
2019-01-26T00:18:26.104Z,97.60
2019-01-26T00:20:56.622Z,91.33
2019-01-26T00:23:27.828Z,95.67
2019-01-26T00:25:58.520Z,99.53
2019-01-26T00:28:29.586Z,115.37
2019-01-26T00:31:00.332Z,105.80
2019-01-26T00:33:31.026Z,111.20
2019-01-26T00:36:02.009Z,101.53
2019-01-26T00:38:32.841Z,87.00
2019-01-26T00:41:03.692Z,96.87
2019-01-26T00:43:34.432Z,117.40
2019-01-26T00:46:05.475Z,98.23
2019-01-26T00:48:38.116Z,119.53
2019-01-26T00:51:10.019Z,86.17
2019-01-26T00:53:40.580Z,101.20
2019-01-26T00:56:11.464Z,85.80
2019-01-26T00:58:42.041Z,92.93
2019-01-26T01:01:12.790Z,95.97
2019-01-26T01:03:43.325Z,113.40
2019-01-26T01:06:14.061Z,107.70
2019-01-26T01:08:45.902Z,84.70
2019-01-26T01:11:16.464Z,83.90
2019-01-26T01:13:47.134Z,85.83
2019-01-26T01:16:17.615Z,76.43
2019-01-26T01:18:48.368Z,77.83
2019-01-26T01:21:19.229Z,81.73
2019-01-26T01:23:49.568Z,75.10
2019-01-26T01:26:20.178Z,72.70
2019-01-26T01:28:50.972Z,72.80
2019-01-26T01:31:22.186Z,74.63
2019-01-26T01:33:53.920Z,66.97
2019-01-26T01:36:24.714Z,78.83
2019-01-26T01:38:55.237Z,64.63
2019-01-26T01:41:26.159Z,52.40
2019-01-26T01:43:56.752Z,53.00
2019-01-26T01:46:28.859Z,68.23
2019-01-26T01:49:00.778Z,47.47
2019-01-26T01:51:31.399Z,60.67
2019-01-26T01:54:02.308Z,57.97
2019-01-26T01:56:33.048Z,58.53
2019-01-26T01:59:04.796Z,50.80
2019-01-26T02:01:35.433Z,53.93
2019-01-26T02:04:07.635Z,59.60
2019-01-26T02:06:38.358Z,50.00
2019-01-26T02:09:10.425Z,66.87
2019-01-26T02:11:41.210Z,61.20
2019-01-26T02:14:11.800Z,54.53
2019-01-26T02:16:50.077Z,64.10
2019-01-26T02:19:16.416Z,59.40
2019-01-26T02:21:47.200Z,69.37
2019-01-26T02:24:17.765Z,62.27
2019-01-26T02:26:48.121Z,64.40
2019-01-26T02:29:19.109Z,77.23
2019-01-26T02:31:51.338Z,65.83
2019-01-26T02:34:23.004Z,70.07
2019-01-26T02:36:53.733Z,61.50
2019-01-26T02:39:24.449Z,76.63
2019-01-26T02:41:54.883Z,64.23
2019-01-26T02:44:25.560Z,66.30
2019-01-26T02:46:58.123Z,54.10
2019-01-26T02:49:28.567Z,62.03
2019-01-26T02:51:59.139Z,55.37
2019-01-26T02:54:29.701Z,55.27
2019-01-26T02:57:03.134Z,57.83
2019-01-26T02:59:33.723Z,57.97
2019-01-26T03:02:05.720Z,51.87
2019-01-26T03:04:36.241Z,56.77
2019-01-26T03:07:06.834Z,43.87
2019-01-26T03:09:37.550Z,49.63
2019-01-26T03:12:08.219Z,42.50
2019-01-26T03:14:38.866Z,48.80
2019-01-26T03:17:10.031Z,41.20
2019-01-26T03:19:40.750Z,46.10
2019-01-26T03:22:11.879Z,40.57
2019-01-26T03:24:43.716Z,45.03
2019-01-26T03:27:14.270Z,31.70
2019-01-26T03:29:46.395Z,33.90
2019-01-26T03:32:17.151Z,30.17
2019-01-26T03:34:48.853Z,31.40
2019-01-26T03:37:21.578Z,33.00
2019-01-26T03:39:52.231Z,30.90
2019-01-26T03:42:22.967Z,31.90
2019-01-26T03:44:53.659Z,27.87
2019-01-26T03:47:24.262Z,25.80
2019-01-26T03:49:55.059Z,36.37
2019-01-26T03:52:27.108Z,49.00
2019-01-26T03:54:57.851Z,29.70
2019-01-26T03:57:28.394Z,37.73
2019-01-26T03:59:59.014Z,32.50
2019-01-26T04:02:29.622Z,30.77
2019-01-26T04:05:00.477Z,32.80
2019-01-26T04:07:32.007Z,26.33
2019-01-26T04:10:03.695Z,26.57
2019-01-26T04:12:34.331Z,31.90
2019-01-26T04:15:05.239Z,29.00
2019-01-26T04:17:35.894Z,25.57
2019-01-26T04:20:07.617Z,21.53
2019-01-26T04:22:38.556Z,31.37
2019-01-26T04:25:09.287Z,26.50
2019-01-26T04:27:40.009Z,24.80
2019-01-26T04:30:13.259Z,24.50
2019-01-26T04:32:43.820Z,34.87
2019-01-26T04:35:17.119Z,25.93
2019-01-26T04:37:47.848Z,25.23
2019-01-26T04:40:19.764Z,29.73
2019-01-26T04:42:50.321Z,25.63
2019-01-26T04:45:22.914Z,28.37
2019-01-26T04:47:53.745Z,33.23
2019-01-26T04:50:24.330Z,28.00
2019-01-26T04:52:54.985Z,29.77
2019-01-26T04:55:27.485Z,24.13
2019-01-26T04:57:58.145Z,22.17
2019-01-26T05:00:29.964Z,27.00
2019-01-26T05:03:00.568Z,24.23
2019-01-26T05:05:31.316Z,20.50
2019-01-26T05:08:03.022Z,22.17
2019-01-26T05:10:33.770Z,22.90
2019-01-26T05:13:04.527Z,20.37
2019-01-26T05:15:35.217Z,23.20
2019-01-26T05:18:05.898Z,23.47
2019-01-26T05:20:36.297Z,30.10
2019-01-26T05:23:07.016Z,25.17
2019-01-26T05:25:37.645Z,24.60
2019-01-26T05:28:08.173Z,19.03
2019-01-26T05:30:38.813Z,21.47
2019-01-26T05:33:09.437Z,23.80
2019-01-26T05:35:41.133Z,20.60
2019-01-26T05:38:11.837Z,21.00
2019-01-26T05:40:42.824Z,22.87
2019-01-26T05:43:14.572Z,31.30
2019-01-26T05:45:45.168Z,20.50
2019-01-26T05:48:15.730Z,23.10
2019-01-26T05:50:46.436Z,22.67
2019-01-26T05:53:17.124Z,26.03
2019-01-26T05:55:47.715Z,20.07
2019-01-26T05:58:18.362Z,25.97
2019-01-26T06:00:49.008Z,31.37
2019-01-26T06:03:19.548Z,25.80
2019-01-26T06:05:50.584Z,35.07
2019-01-26T06:08:22.144Z,31.73
2019-01-26T06:10:52.735Z,32.43
2019-01-26T06:13:24.493Z,30.80
2019-01-26T06:15:55.198Z,27.77
2019-01-26T06:18:26.134Z,29.90
2019-01-26T06:20:59.135Z,31.60
2019-01-26T06:23:29.787Z,28.37
2019-01-26T06:26:00.558Z,31.93
2019-01-26T06:28:31.128Z,56.90
2019-01-26T06:31:02.042Z,27.17
2019-01-26T06:33:32.795Z,25.93
2019-01-26T06:36:03.410Z,28.83
2019-01-26T06:38:35.717Z,21.40
2019-01-26T06:41:07.417Z,25.83
2019-01-26T06:43:38.114Z,30.53
2019-01-26T06:46:08.930Z,29.90
2019-01-26T06:48:40.851Z,27.10
2019-01-26T06:51:11.507Z,31.27
2019-01-26T06:53:41.928Z,33.23
2019-01-26T06:56:12.590Z,22.80
2019-01-26T06:58:44.482Z,29.23
2019-01-26T07:01:16.654Z,27.33
2019-01-26T07:03:48.632Z,28.10
2019-01-26T07:06:23.090Z,27.13
2019-01-26T07:08:53.662Z,36.67
2019-01-26T07:11:24.314Z,33.70
2019-01-26T07:13:55.067Z,38.03
2019-01-26T07:16:26.580Z,29.63
2019-01-26T07:18:58.588Z,35.60
2019-01-26T07:21:30.493Z,26.77
2019-01-26T07:24:01.077Z,30.60
2019-01-26T07:26:31.622Z,32.83
2019-01-26T07:29:02.391Z,43.03
2019-01-26T07:31:32.856Z,24.70
2019-01-26T07:34:03.580Z,31.30
2019-01-26T07:36:34.463Z,37.13
2019-01-26T07:39:06.678Z,25.87
2019-01-26T07:41:38.007Z,23.30
2019-01-26T07:44:08.917Z,30.07
2019-01-26T07:46:39.447Z,39.27
2019-01-26T07:49:10.087Z,31.13
2019-01-26T07:51:40.878Z,39.10
2019-01-26T07:54:11.556Z,25.93
2019-01-26T07:56:42.755Z,29.20
2019-01-26T07:59:13.494Z,32.83
2019-01-26T08:01:44.169Z,28.63
2019-01-26T08:04:14.893Z,29.90
2019-01-26T08:06:46.722Z,29.50
2019-01-26T08:09:18.650Z,23.63
2019-01-26T08:11:49.287Z,26.57
2019-01-26T08:14:21.070Z,30.53
2019-01-26T08:16:51.792Z,28.73
2019-01-26T08:19:22.670Z,28.93
2019-01-26T08:21:53.414Z,31.07
2019-01-26T08:24:24.105Z,35.20
2019-01-26T08:26:55.274Z,37.83
2019-01-26T08:29:25.979Z,57.57
2019-01-26T08:31:56.731Z,40.37
2019-01-26T08:34:27.493Z,34.87
2019-01-26T08:36:57.976Z,33.77
2019-01-26T08:39:28.622Z,37.47
2019-01-26T08:41:59.344Z,35.87
2019-01-26T08:44:30.394Z,37.63
2019-01-26T08:47:00.979Z,30.87
2019-01-26T08:49:31.494Z,36.47
2019-01-26T08:52:01.958Z,31.67
2019-01-26T08:54:32.624Z,32.17
2019-01-26T08:57:03.460Z,36.43
2019-01-26T08:59:33.963Z,42.67
2019-01-26T09:02:25.554Z,38.10
2019-01-26T09:04:56.575Z,32.70
2019-01-26T09:07:27.297Z,32.17
2019-01-26T09:09:58.503Z,28.43
2019-01-26T09:12:32.776Z,29.63
2019-01-26T09:15:03.326Z,30.13
2019-01-26T09:17:33.980Z,26.13
2019-01-26T09:20:08.248Z,29.63
2019-01-26T09:22:40.232Z,27.23
2019-01-26T09:25:11.149Z,39.93
2019-01-26T09:27:42.387Z,27.50
2019-01-26T09:30:13.615Z,24.57
2019-01-26T09:32:44.336Z,27.07
2019-01-26T09:35:15.432Z,29.17
2019-01-26T09:37:47.184Z,28.27
2019-01-26T09:40:19.051Z,28.87
2019-01-26T09:42:50.168Z,22.43
2019-01-26T09:45:21.108Z,27.50
2019-01-26T09:47:52.765Z,27.07
2019-01-26T09:50:23.539Z,36.73
2019-01-26T09:52:54.239Z,24.43
2019-01-26T09:55:25.059Z,28.03
2019-01-26T09:57:56.115Z,23.90
2019-01-26T10:00:37.442Z,32.27
2019-01-26T10:03:08.061Z,20.63
2019-01-26T10:05:39.725Z,24.00
2019-01-26T10:08:10.554Z,40.70
2019-01-26T10:10:41.244Z,23.33
2019-01-26T10:13:13.397Z,23.77
2019-01-26T10:15:44.271Z,24.37
2019-01-26T10:18:15.217Z,23.87
2019-01-26T10:20:45.871Z,21.10
2019-01-26T10:23:17.014Z,20.90
2019-01-26T10:25:48.835Z,23.80
2019-01-26T10:28:19.864Z,21.10
2019-01-26T10:31:01.197Z,23.33
2019-01-26T10:33:33.277Z,21.73
2019-01-26T10:36:22.852Z,17.23
2019-01-26T10:39:05.782Z,21.00
2019-01-26T10:41:58.437Z,24.97
2019-01-26T10:44:30.896Z,24.87
2019-01-26T10:47:03.158Z,25.23
2019-01-26T10:49:33.680Z,22.27
2019-01-26T10:52:05.148Z,17.57
2019-01-26T10:54:39.775Z,20.67
2019-01-26T10:57:12.298Z,18.07
2019-01-26T10:59:42.968Z,18.73
2019-01-26T11:02:14.424Z,18.13
2019-01-26T11:04:46.350Z,24.70
2019-01-26T11:07:16.998Z,21.97
2019-01-26T11:09:47.814Z,18.67
2019-01-26T11:12:19.174Z,18.02
2019-01-26T11:14:49.775Z,22.75
2019-01-26T11:17:20.678Z,22.93
2019-01-26T11:19:51.799Z,18.47
2019-01-26T11:22:22.546Z,22.13
2019-01-26T11:24:53.184Z,23.17
2019-01-26T11:27:23.973Z,19.37
2019-01-26T11:29:54.578Z,22.53
2019-01-26T11:32:25.274Z,19.70
2019-01-26T11:34:56.435Z,16.10
2019-01-26T11:37:27.189Z,19.47
2019-01-26T11:40:04.400Z,16.42
2019-01-26T11:42:35.051Z,16.55
2019-01-26T11:45:24.522Z,21.80
2019-01-26T11:47:56.114Z,14.53
2019-01-26T11:50:32.882Z,16.67
2019-01-26T11:53:03.434Z,15.75
2019-01-26T11:58:30.369Z,13.05
2019-01-26T12:01:19.771Z,12.43
2019-01-26T12:04:06.817Z,13.48
2019-01-26T12:06:43.712Z,15.00
2019-01-26T12:09:19.087Z,14.93
2019-01-26T12:11:50.338Z,13.05
2019-01-26T12:14:21.231Z,13.78
2019-01-26T12:16:54.761Z,10.00
2019-01-26T12:19:25.048Z,9.88
2019-01-26T12:21:56.731Z,20.80
2019-01-26T12:24:27.477Z,13.78
2019-01-26T12:27:00.261Z,11.48
2019-01-26T12:29:30.739Z,12.15
2019-01-26T12:32:02.619Z,10.17
2019-01-26T12:34:33.155Z,13.93
2019-01-26T12:37:05.068Z,9.63
2019-01-26T12:39:35.981Z,13.70
2019-01-26T12:42:06.765Z,13.70
2019-01-26T12:44:37.574Z,14.18
2019-01-26T12:47:08.076Z,12.70
2019-01-26T12:49:39.632Z,14.53
2019-01-26T12:52:10.723Z,13.43
2019-01-26T12:54:41.193Z,13.65
2019-01-26T12:57:11.491Z,12.50
2019-01-26T12:59:42.420Z,12.18
2019-01-26T13:02:12.865Z,21.02
2019-01-26T13:04:43.231Z,16.87
2019-01-26T13:07:13.565Z,11.53
2019-01-26T13:09:45.565Z,13.10
2019-01-26T13:12:16.133Z,11.88
2019-01-26T13:14:46.457Z,11.97
2019-01-26T13:17:17.082Z,11.60
2019-01-26T13:19:47.358Z,12.35
2019-01-26T13:22:17.631Z,11.57
2019-01-26T13:24:48.221Z,12.95
2019-01-26T13:27:18.605Z,12.60
2019-01-26T13:29:49.111Z,13.60
2019-01-26T13:32:27.549Z,9.05
2019-01-26T13:34:58.400Z,7.55
2019-01-26T13:37:28.941Z,10.90
2019-01-26T13:40:01.460Z,13.90
2019-01-26T13:42:31.910Z,11.15
2019-01-26T13:45:05.285Z,12.53
2019-01-26T13:47:37.946Z,14.05
2019-01-26T13:50:10.742Z,9.25
2019-01-26T13:52:48.517Z,17.98
2019-01-26T13:55:24.047Z,15.98
2019-01-26T13:57:55.661Z,14.90
2019-01-26T14:00:28.536Z,14.43
2019-01-26T14:02:58.865Z,14.30
2019-01-26T14:05:29.277Z,15.05
2019-01-26T14:07:59.755Z,12.73
2019-01-26T14:10:30.590Z,16.60
2019-01-26T14:13:02.166Z,15.43
2019-01-26T14:15:32.674Z,12.93
2019-01-26T14:18:04.939Z,14.90
2019-01-26T14:20:35.337Z,18.77
2019-01-26T14:23:05.661Z,17.75
2019-01-26T14:25:36.043Z,11.53
2019-01-26T14:28:06.476Z,12.68
2019-01-26T14:30:39.705Z,11.15
2019-01-26T14:33:10.109Z,10.93
2019-01-26T14:35:40.526Z,11.65
2019-01-26T14:38:10.918Z,11.48
2019-01-26T14:40:41.267Z,11.60
2019-01-26T14:43:11.678Z,10.85
2019-01-26T14:45:41.957Z,14.40
2019-01-26T14:48:13.109Z,10.15
2019-01-26T14:50:43.744Z,10.63
2019-01-26T14:53:14.593Z,11.63
2019-01-26T14:55:45.219Z,10.18
2019-01-26T14:58:15.916Z,7.87
2019-01-26T15:00:46.413Z,9.30
2019-01-26T15:03:16.859Z,7.95
2019-01-26T15:05:47.610Z,8.65
2019-01-26T15:08:18.187Z,11.08
2019-01-26T15:10:48.814Z,10.95
2019-01-26T15:13:19.397Z,10.00
2019-01-26T15:15:50.079Z,7.47
2019-01-26T15:18:21.103Z,6.65
2019-01-26T15:20:51.921Z,8.05
2019-01-26T15:23:22.249Z,5.30
2019-01-26T15:25:52.710Z,5.90
2019-01-26T15:28:23.148Z,7.40
2019-01-26T15:30:53.992Z,8.15
2019-01-26T15:33:24.466Z,5.67
2019-01-26T15:35:54.950Z,6.20
2019-01-26T15:38:25.584Z,5.50
2019-01-26T15:40:55.982Z,4.78
2019-01-26T15:43:26.393Z,6.30
2019-01-26T15:45:56.732Z,6.80
2019-01-26T15:48:27.067Z,10.50
2019-01-26T15:50:57.418Z,5.90
2019-01-26T15:53:27.894Z,6.00
2019-01-26T15:55:58.220Z,8.20
2019-01-26T15:58:28.607Z,9.93
2019-01-26T16:00:59.328Z,7.17
2019-01-26T16:03:29.687Z,9.90
2019-01-26T16:06:00.155Z,8.45
2019-01-26T16:08:30.475Z,8.63
2019-01-26T16:11:00.859Z,12.37
2019-01-26T16:13:31.335Z,13.80
2019-01-26T16:16:01.769Z,13.45
2019-01-26T16:18:36.717Z,10.48
2019-01-26T16:21:07.435Z,16.02
2019-01-26T16:23:37.608Z,11.55
2019-01-26T16:26:08.237Z,8.23
2019-01-26T16:28:38.232Z,10.00
2019-01-26T16:31:08.404Z,8.68
2019-01-26T16:33:38.591Z,14.05
2019-01-26T16:36:08.788Z,21.05
2019-01-26T16:38:38.915Z,7.78
2019-01-26T16:41:09.194Z,10.25
2019-01-26T16:43:39.294Z,8.20
2019-01-26T16:46:09.536Z,12.75
2019-01-26T16:48:39.730Z,11.50
2019-01-26T16:51:10.199Z,8.45
2019-01-26T16:53:40.702Z,9.48
2019-01-26T16:56:11.486Z,15.40
2019-01-26T16:58:42.371Z,6.20
2019-01-26T17:01:12.874Z,5.40
2019-01-26T17:03:44.438Z,5.75
2019-01-26T17:06:15.018Z,9.68
2019-01-26T17:08:45.767Z,12.70
2019-01-26T17:11:16.204Z,9.18
2019-01-26T17:13:46.543Z,11.30
2019-01-26T17:16:16.963Z,10.43
2019-01-26T17:18:47.605Z,6.22
2019-01-26T17:21:17.767Z,7.95
2019-01-26T17:23:48.211Z,6.00
2019-01-26T17:26:18.236Z,6.05
2019-01-26T17:28:48.401Z,7.25
2019-01-26T17:31:19.056Z,6.35
2019-01-26T17:33:49.437Z,9.05
2019-01-26T17:36:19.878Z,6.65
2019-01-26T17:38:50.335Z,7.67
2019-01-26T17:41:20.913Z,7.72
2019-01-26T17:43:51.698Z,7.25
2019-01-26T17:46:21.849Z,10.03
2019-01-26T17:48:53.895Z,7.30
2019-01-26T17:51:24.354Z,7.35
2019-01-26T17:53:54.731Z,6.33
2019-01-26T17:56:27.057Z,6.90
2019-01-26T17:58:57.488Z,13.58
2019-01-26T18:01:28.423Z,8.23
2019-01-26T18:03:59.967Z,7.65
2019-01-26T18:06:30.418Z,12.28
2019-01-26T18:09:00.930Z,9.88
2019-01-26T18:11:32.768Z,11.08
2019-01-26T18:14:03.234Z,8.98
2019-01-26T18:16:33.568Z,8.98
2019-01-26T18:19:04.106Z,8.85
2019-01-26T18:21:34.700Z,10.08
2019-01-26T18:24:05.336Z,13.00
2019-01-26T18:26:36.111Z,13.62
2019-01-26T18:29:06.579Z,13.53
2019-01-26T18:31:36.934Z,10.70
2019-01-26T18:34:07.460Z,10.93
2019-01-26T18:36:37.861Z,12.95
2019-01-26T18:39:10.182Z,15.15
2019-01-26T18:41:40.637Z,14.03
2019-01-26T18:44:11.121Z,10.93
2019-01-26T18:46:41.521Z,12.60
2019-01-26T18:49:12.159Z,10.48
2019-01-26T18:51:46.934Z,15.18
2019-01-26T18:54:17.631Z,13.93
2019-01-26T18:56:49.686Z,21.05
2019-01-26T18:59:24.479Z,16.23
2019-01-26T19:01:54.963Z,15.08
2019-01-26T19:04:29.591Z,15.95
2019-01-26T19:07:00.319Z,16.85
2019-01-26T19:09:30.941Z,13.85
2019-01-26T19:12:01.867Z,15.00
2019-01-26T19:14:32.920Z,14.35
2019-01-26T19:17:03.414Z,14.05
2019-01-26T19:19:33.952Z,15.15
2019-01-26T19:22:04.468Z,15.50
2019-01-26T19:24:36.744Z,15.95
2019-01-26T19:27:08.313Z,13.93
2019-01-26T19:29:39.118Z,16.40
2019-01-26T19:32:09.594Z,15.68
2019-01-26T19:34:40.084Z,17.00
2019-01-26T19:37:10.713Z,21.62
2019-01-26T19:39:41.180Z,13.80
2019-01-26T19:42:11.810Z,17.45
2019-01-26T19:44:42.209Z,17.95
2019-01-26T19:47:12.671Z,17.07
2019-01-26T19:49:43.173Z,15.28
2019-01-26T19:52:13.635Z,16.30
2019-01-26T19:54:44.053Z,15.48
2019-01-26T19:57:14.725Z,18.15
2019-01-26T19:59:45.117Z,14.38
2019-01-26T20:02:15.766Z,15.45
2019-01-26T20:04:46.338Z,16.97
2019-01-26T20:07:16.771Z,17.77
2019-01-26T20:09:47.825Z,13.88
2019-01-26T20:12:19.710Z,16.65
2019-01-26T20:14:50.022Z,21.17
2019-01-26T20:17:20.237Z,20.68
2019-01-26T20:19:50.687Z,19.37
2019-01-26T20:22:21.330Z,17.90
2019-01-26T20:24:51.789Z,21.05
2019-01-26T20:27:22.203Z,17.75
2019-01-26T20:29:52.625Z,18.52
2019-01-26T20:32:23.090Z,20.70
2019-01-26T20:34:53.488Z,21.80
2019-01-26T20:37:23.824Z,22.02
2019-01-26T20:39:54.047Z,20.48
2019-01-26T20:42:24.531Z,15.70
2019-01-26T20:44:54.953Z,14.53
2019-01-26T20:47:25.433Z,17.02
2019-01-26T20:49:55.796Z,18.30
2019-01-26T20:52:26.278Z,15.00
2019-01-26T20:54:56.528Z,14.05
2019-01-26T20:57:27.163Z,15.20
2019-01-26T20:59:57.556Z,13.32
2019-01-26T21:02:27.976Z,12.07
2019-01-26T21:04:58.478Z,12.85
2019-01-26T21:07:30.992Z,14.75
2019-01-26T21:10:01.254Z,13.62
2019-01-26T21:12:31.720Z,20.10
2019-01-26T21:15:04.729Z,15.43
2019-01-26T21:17:34.461Z,14.75
2019-01-26T21:20:06.546Z,18.90
2019-01-26T21:22:37.074Z,16.00
2019-01-26T21:25:08.595Z,12.60
2019-01-26T21:27:39.087Z,13.00
2019-01-26T21:30:13.466Z,9.85
2019-01-26T21:32:43.936Z,12.23
2019-01-26T21:35:14.416Z,7.45
2019-01-26T21:37:46.358Z,11.22
2019-01-26T21:40:19.931Z,8.08
2019-01-26T21:42:50.316Z,9.73
2019-01-26T21:45:21.165Z,9.55
2019-01-26T21:47:52.025Z,9.83
2019-01-26T21:50:24.351Z,9.65
2019-01-26T21:52:55.743Z,8.98
2019-01-26T21:55:28.398Z,12.95
2019-01-26T21:57:59.007Z,8.58
2019-01-26T22:00:34.449Z,7.97
2019-01-26T22:03:06.306Z,10.18
2019-01-26T22:05:36.870Z,7.65
2019-01-26T22:08:07.349Z,8.75
2019-01-26T22:10:38.873Z,12.98
2019-01-26T22:13:10.181Z,8.65
2019-01-26T22:15:40.611Z,8.15
2019-01-26T22:18:12.283Z,8.03
2019-01-26T22:20:42.600Z,7.62
2019-01-26T22:23:13.675Z,7.28
2019-01-26T22:25:44.144Z,10.55
2019-01-26T22:28:14.675Z,8.10
2019-01-26T22:30:45.425Z,7.47
2019-01-26T22:33:15.884Z,8.35
2019-01-26T22:35:46.295Z,8.08
2019-01-26T22:38:18.123Z,10.75
2019-01-26T22:40:48.663Z,8.35
2019-01-26T22:43:19.084Z,7.97
2019-01-26T22:45:49.590Z,7.50
2019-01-26T22:48:20.338Z,9.15
2019-01-26T22:50:50.994Z,9.33
2019-01-26T22:53:21.622Z,10.03
2019-01-26T22:55:52.156Z,9.05
2019-01-26T22:58:23.219Z,9.80
2019-01-26T23:01:30.529Z,9.15
2019-01-26T23:04:27.035Z,9.25
2019-01-26T23:07:29.607Z,10.08
2019-01-26T23:10:09.886Z,10.63
2019-01-26T23:12:56.592Z,11.95
2019-01-26T23:16:04.202Z,7.87
2019-01-26T23:18:58.062Z,10.70
2019-01-26T23:22:08.728Z,9.40
2019-01-26T23:25:24.445Z,8.80
2019-01-26T23:28:35.510Z,9.45
2019-01-26T23:31:14.866Z,10.38
2019-01-26T23:33:46.547Z,9.10
2019-01-26T23:36:17.706Z,10.30
2019-01-26T23:38:48.203Z,10.70
2019-01-26T23:41:18.612Z,11.08
2019-01-26T23:43:48.931Z,11.78
2019-01-26T23:46:19.563Z,14.33
2019-01-26T23:48:49.915Z,10.98
2019-01-26T23:51:20.515Z,12.37
2019-01-26T23:53:51.193Z,12.05
2019-01-26T23:56:21.639Z,13.45
2019-01-26T23:58:52.308Z,13.25
